Time;durP1;ratioP1;P1;durP2;ratioP2;P2;SDS_P1;SDS_P2;PMS_P1;PMS_P2;Temp;Humidity;BMP_temperature;BMP_pressure;BME280_temperature;BME280_humidity;BME280_pressure;Samples;Min_cycle;Max_cycle;Signal;HPM_P1;HPM_P2
2023/09/25 00:00:30;;;;;;;3.28;2.40;;;9.50;90.20;;;;;;5096104;28;20246;-76
2023/09/25 00:02:59;;;;;;;3.92;1.70;;;9.40;90.30;;;;;;5095141;28;20199;-76
2023/09/25 00:05:26;;;;;;;2.90;1.90;;;9.50;90.50;;;;;;5095918;28;20223;-76
2023/09/25 00:07:55;;;;;;;3.80;1.58;;;9.60;90.40;;;;;;5096033;28;20222;-76
2023/09/25 00:10:22;;;;;;;4.05;2.90;;;9.50;90.20;;;;;;5095604;28;20276;-76
2023/09/25 00:12:54;;;;;;;4.10;2.35;;;9.50;90.10;;;;;;5095601;28;20199;-76
2023/09/25 00:15:21;;;;;;;3.92;2.50;;;9.40;89.20;;;;;;5095228;28;20234;-76
2023/09/25 00:17:48;;;;;;;4.70;2.60;;;9.30;89.40;;;;;;5095562;28;20206;-76
2023/09/25 00:20:19;;;;;;;7.05;2.90;;;9.40;89.30;;;;;;5095694;28;20275;-77
2023/09/25 00:22:47;;;;;;;6.03;2.83;;;9.30;88.80;;;;;;5095690;28;20213;-76
2023/09/25 00:25:18;;;;;;;5.65;2.33;;;9.30;89.10;;;;;;5094986;28;20217;-76
2023/09/25 00:27:45;;;;;;;3.13;1.88;;;9.20;88.80;;;;;;5095758;28;20184;-76
2023/09/25 00:30:14;;;;;;;3.97;2.60;;;9.20;88.30;;;;;;5095544;28;20192;-76
2023/09/25 00:32:41;;;;;;;3.63;2.03;;;9.10;88.30;;;;;;5095545;28;20222;-76
2023/09/25 00:35:10;;;;;;;4.82;2.22;;;9.10;88.50;;;;;;5095012;28;20194;-76
2023/09/25 00:37:37;;;;;;;5.50;2.65;;;9.10;88.70;;;;;;5095387;28;20193;-76
2023/09/25 00:40:12;;;;;;;4.10;2.03;;;9.10;89.20;;;;;;5095069;28;20196;-76
2023/09/25 00:42:41;;;;;;;3.13;2.15;;;9.10;89.70;;;;;;5094930;28;20546;-76
2023/09/25 00:45:10;;;;;;;3.63;2.15;;;9.10;90.20;;;;;;5095047;28;20228;-76
2023/09/25 00:47:38;;;;;;;3.45;1.75;;;9.10;90.50;;;;;;5095134;28;20188;-76
2023/09/25 00:50:07;;;;;;;3.50;2.30;;;9.20;89.60;;;;;;5094645;28;20241;-76
2023/09/25 00:52:36;;;;;;;3.60;2.03;;;9.10;88.90;;;;;;5095164;28;20250;-76
2023/09/25 00:55:04;;;;;;;3.10;2.15;;;9.20;89.10;;;;;;5094257;28;20668;-76
2023/09/25 00:57:34;;;;;;;4.35;1.70;;;9.10;88.80;;;;;;5094921;28;20196;-76
2023/09/25 01:00:03;;;;;;;3.45;2.35;;;9.10;89.40;;;;;;5094825;28;20191;-76
2023/09/25 01:02:31;;;;;;;2.83;1.63;;;9.00;89.60;;;;;;5094047;28;20212;-76
2023/09/25 01:04:59;;;;;;;3.60;2.25;;;9.00;89.80;;;;;;5093067;28;20242;-76
2023/09/25 01:07:27;;;;;;;5.47;2.00;;;9.00;89.80;;;;;;5093501;28;20195;-76
2023/09/25 01:10:14;;;;;;;3.70;2.40;;;9.00;90.00;;;;;;5093093;28;20196;-74
2023/09/25 01:12:41;;;;;;;5.22;1.98;;;9.00;90.10;;;;;;5074514;28;20219;-76
2023/09/25 01:15:11;;;;;;;2.83;1.70;;;9.00;90.70;;;;;;5089491;28;20254;-76
2023/09/25 01:17:38;;;;;;;3.30;2.15;;;9.00;90.90;;;;;;5094365;28;20706;-77
2023/09/25 01:20:13;;;;;;;3.38;1.58;;;9.00;90.20;;;;;;5094153;28;20217;-76
2023/09/25 01:22:43;;;;;;;3.70;1.95;;;9.00;89.80;;;;;;5094083;28;20220;-76
2023/09/25 01:25:11;;;;;;;3.28;1.85;;;9.00;90.00;;;;;;5093963;28;20196;-76
2023/09/25 01:27:38;;;;;;;2.50;1.65;;;8.90;90.00;;;;;;5094429;28;20203;-76
2023/09/25 01:30:08;;;;;;;5.38;2.22;;;8.90;90.00;;;;;;5094121;28;20282;-76
2023/09/25 01:32:37;;;;;;;3.72;2.22;;;8.90;89.00;;;;;;5093910;28;20591;-76
2023/09/25 01:35:05;;;;;;;5.05;2.50;;;8.90;88.70;;;;;;5093801;28;20210;-76
2023/09/25 01:37:32;;;;;;;4.90;2.55;;;8.80;89.00;;;;;;5094195;28;20214;-76
2023/09/25 01:40:01;;;;;;;3.72;2.55;;;8.80;89.40;;;;;;5094255;28;20601;-76
2023/09/25 01:42:28;;;;;;;8.77;2.47;;;8.80;89.90;;;;;;5094001;28;20195;-76
2023/09/25 01:44:55;;;;;;;3.55;2.30;;;8.80;90.00;;;;;;5093261;28;20246;-74
2023/09/25 01:47:22;;;;;;;5.38;2.70;;;8.70;89.60;;;;;;5094087;28;20191;-74
2023/09/25 01:49:49;;;;;;;3.67;2.05;;;8.80;90.20;;;;;;5093031;28;20261;-74
2023/09/25 01:52:17;;;;;;;4.57;1.88;;;8.80;90.30;;;;;;5093497;28;20191;-74
2023/09/25 01:54:46;;;;;;;3.20;2.00;;;8.80;90.40;;;;;;5093121;28;20187;-74
2023/09/25 01:57:14;;;;;;;3.10;1.85;;;8.70;90.40;;;;;;5093853;28;20188;-76
2023/09/25 01:59:41;;;;;;;5.63;2.35;;;8.80;90.30;;;;;;5093692;28;20211;-76
2023/09/25 02:02:08;;;;;;;3.65;2.00;;;8.70;88.80;;;;;;5093485;28;20311;-76
2023/09/25 02:04:36;;;;;;;3.90;2.45;;;8.70;89.20;;;;;;5093087;28;20302;-76
2023/09/25 02:07:03;;;;;;;3.50;2.25;;;8.60;89.40;;;;;;5093417;28;20195;-76
2023/09/25 02:09:31;;;;;;;3.42;1.90;;;8.60;89.80;;;;;;5093312;28;20195;-76
2023/09/25 02:11:58;;;;;;;3.33;2.20;;;8.70;90.10;;;;;;5093264;28;20417;-76
2023/09/25 02:14:27;;;;;;;3.88;1.75;;;8.70;90.20;;;;;;5092811;28;20239;-76
2023/09/25 02:16:54;;;;;;;7.68;2.00;;;8.60;90.20;;;;;;5093684;28;20187;-76
2023/09/25 02:19:23;;;;;;;4.28;1.95;;;8.60;90.10;;;;;;5093478;28;20227;-76
2023/09/25 02:21:51;;;;;;;3.25;1.90;;;8.60;89.70;;;;;;5093548;28;20198;-76
2023/09/25 02:24:18;;;;;;;3.30;2.13;;;8.60;89.50;;;;;;5093129;28;20630;-76
2023/09/25 02:26:45;;;;;;;4.88;2.08;;;8.50;89.00;;;;;;5092851;28;20198;-76
2023/09/25 02:29:13;;;;;;;3.75;2.03;;;8.50;89.50;;;;;;5092562;28;20599;-76
2023/09/25 02:31:42;;;;;;;3.20;2.10;;;8.40;89.70;;;;;;5091353;28;20708;-76
2023/09/25 02:34:14;;;;;;;3.20;1.70;;;8.50;89.30;;;;;;5092807;28;20203;-76
2023/09/25 02:36:41;;;;;;;6.50;1.90;;;8.40;88.40;;;;;;5093441;28;20269;-76
2023/09/25 02:39:10;;;;;;;2.60;1.50;;;8.30;88.00;;;;;;5093113;28;20587;-76
2023/09/25 02:41:37;;;;;;;2.95;1.85;;;8.30;88.00;;;;;;5092971;28;20187;-76
2023/09/25 02:44:05;;;;;;;3.10;1.63;;;8.30;87.90;;;;;;5093044;28;20226;-76
2023/09/25 02:46:32;;;;;;;3.17;1.95;;;8.30;87.20;;;;;;5093649;28;20194;-76
2023/09/25 02:49:01;;;;;;;3.63;1.92;;;8.20;87.10;;;;;;5093227;28;20190;-76
2023/09/25 02:51:29;;;;;;;4.28;2.30;;;8.10;88.80;;;;;;5092534;28;20183;-76
2023/09/25 02:53:56;;;;;;;5.10;2.17;;;8.10;89.70;;;;;;5093108;28;20195;-76
2023/09/25 02:56:23;;;;;;;4.05;2.35;;;8.10;90.10;;;;;;5093788;28;20614;-76
2023/09/25 02:58:50;;;;;;;2.88;1.80;;;8.10;90.20;;;;;;5093253;28;20203;-76
2023/09/25 03:01:18;;;;;;;2.95;1.70;;;8.00;90.40;;;;;;5094084;28;20205;-76
2023/09/25 03:03:46;;;;;;;4.85;2.40;;;7.90;90.80;;;;;;5096653;28;20747;-76
2023/09/25 03:06:14;;;;;;;3.47;2.10;;;7.80;91.10;;;;;;5096935;28;20199;-76
2023/09/25 03:08:42;;;;;;;3.58;2.30;;;7.90;91.30;;;;;;5097017;28;20201;-76
2023/09/25 03:11:10;;;;;;;3.15;2.25;;;7.90;91.30;;;;;;5096040;28;20191;-76
2023/09/25 03:13:37;;;;;;;3.50;2.30;;;7.80;91.10;;;;;;5097011;28;20207;-76
2023/09/25 03:16:13;;;;;;;3.72;2.10;;;;;;;;;;5096530;28;20191;-76
2023/09/25 03:18:41;;;;;;;4.68;2.75;;;;;;;;;;5096378;28;20224;-76
2023/09/25 03:21:09;;;;;;;4.53;3.20;;;;;;;;;;5094969;28;20561;-76
2023/09/25 03:23:38;;;;;;;3.45;2.40;;;;;;;;;;5096277;28;20260;-76
2023/09/25 03:26:05;;;;;;;3.40;2.50;;;;;;;;;;5096650;28;20593;-76
2023/09/25 03:28:33;;;;;;;3.47;2.15;;;;;;;;;;5096337;28;20308;-76
2023/09/25 03:31:02;;;;;;;3.92;2.63;;;;;;;;;;5095681;28;20281;-76
2023/09/25 03:33:30;;;;;;;4.18;1.80;;;;;;;;;;5095681;28;20192;-76
2023/09/25 03:35:58;;;;;;;4.32;2.15;;;;;;;;;;5096253;28;20274;-76
2023/09/25 03:38:25;;;;;;;2.85;1.58;;;;;;;;;;5095938;28;20286;-76
2023/09/25 03:40:54;;;;;;;4.65;1.85;;;;;;;;;;5096088;28;20270;-76
2023/09/25 03:43:22;;;;;;;4.05;2.03;;;;;;;;;;5095806;28;20213;-76
2023/09/25 03:45:50;;;;;;;3.00;1.60;;;;;;;;;;5095861;28;20195;-76
2023/09/25 03:48:18;;;;;;;3.60;1.60;;;;;;;;;;5095758;28;20190;-76
2023/09/25 03:50:45;;;;;;;2.88;1.45;;;;;;;;;;5094890;28;20642;-76
2023/09/25 03:53:13;;;;;;;4.53;2.58;;;;;;;;;;5096014;28;20286;-76
2023/09/25 03:55:40;;;;;;;3.60;2.20;;;;;;;;;;5096333;28;20252;-76
2023/09/25 03:58:09;;;;;;;3.63;2.55;;;;;;;;;;5096312;28;20198;-76
2023/09/25 04:00:39;;;;;;;3.78;2.35;;;;;;;;;;5094968;28;20672;-76
2023/09/25 04:03:06;;;;;;;4.10;2.00;;;;;;;;;;5096139;28;20530;-76
2023/09/25 04:05:34;;;;;;;4.40;2.00;;;;;;;;;;5095408;28;20187;-76
2023/09/25 04:08:01;;;;;;;3.83;1.70;;;;;;;;;;5095998;28;20195;-76
2023/09/25 04:10:29;;;;;;;3.05;2.00;;;;;;;;;;5095729;28;20187;-76
2023/09/25 04:12:57;;;;;;;3.40;2.00;;;;;;;;;;5095353;28;20241;-76
2023/09/25 04:15:26;;;;;;;3.72;2.10;;;;;;;;;;5095953;28;20653;-76
2023/09/25 04:17:54;;;;;;;3.28;1.80;;;;;;;;;;5095685;28;20218;-76
2023/09/25 04:20:25;;;;;;;2.70;1.50;;;;;;;;;;5095059;28;20187;-76
2023/09/25 04:22:53;;;;;;;2.60;1.30;;;;;;;;;;5095702;28;20265;-76
2023/09/25 04:25:24;;;;;;;5.28;2.25;;;;;;;;;;5095400;28;20204;-76
2023/09/25 04:27:52;;;;;;;2.85;1.80;;;;;;;;;;5095422;28;20195;-76
2023/09/25 04:30:20;;;;;;;3.03;2.15;;;;;;;;;;5094874;28;20187;-76
2023/09/25 04:32:53;;;;;;;3.63;2.22;;;;;;;;;;5092132;28;20281;-76
2023/09/25 04:35:21;;;;;;;4.00;2.38;;;;;;;;;;5094561;28;20188;-76
2023/09/25 04:37:49;;;;;;;9.02;5.88;;;;;;;;;;5095191;28;20195;-76
2023/09/25 04:40:22;;;;;;;10.02;5.47;;;;;;;;;;5094166;28;20191;-76
2023/09/25 04:42:51;;;;;;;4.60;3.22;;;;;;;;;;5095047;28;20265;-76
2023/09/25 04:45:18;;;;;;;5.10;2.40;;;;;;;;;;5095190;28;20219;-76
2023/09/25 04:47:46;;;;;;;4.07;2.20;;;;;;;;;;5094789;28;20587;-76
2023/09/25 04:50:15;;;;;;;3.60;2.20;;;;;;;;;;5094864;28;20210;-76
2023/09/25 04:52:44;;;;;;;3.10;1.95;;;;;;;;;;5094670;28;20718;-76
2023/09/25 04:55:13;;;;;;;4.60;1.95;;;;;;;;;;5095435;28;20296;-76
2023/09/25 04:57:41;;;;;;;8.52;1.65;;;;;;;;;;5095076;28;20237;-76
2023/09/25 05:00:13;;;;;;;8.18;1.70;;;;;;;;;;5094611;28;20219;-76
2023/09/25 05:02:41;;;;;;;6.15;1.88;;;;;;;;;;5094877;28;20655;-76
2023/09/25 05:05:09;;;;;;;3.60;2.00;;;;;;;;;;5094828;28;20337;-76
2023/09/25 05:07:38;;;;;;;3.75;2.13;;;;;;;;;;5094650;28;20629;-76
2023/09/25 05:10:05;;;;;;;3.05;1.73;;;;;;;;;;5093533;28;20183;-76
2023/09/25 05:12:33;;;;;;;3.70;1.70;;;;;;;;;;5094541;28;20518;-76
2023/09/25 05:15:00;;;;;;;2.90;1.60;;;;;;;;;;5094298;28;20551;-76
2023/09/25 05:17:28;;;;;;;3.85;2.00;;;;;;;;;;5094431;28;20196;-75
2023/09/25 05:19:55;;;;;;;3.90;2.33;;;;;;;;;;5094456;28;20224;-75
2023/09/25 05:22:23;;;;;;;3.35;2.05;;;;;;;;;;5094232;28;20192;-76
2023/09/25 05:24:52;;;;;;;4.20;2.38;;;;;;;;;;5093294;28;20302;-76
2023/09/25 05:27:21;;;;;;;5.50;2.70;;;;;;;;;;5082870;28;20298;-76
2023/09/25 05:29:48;;;;;;;3.55;2.00;;;;;;;;;;5074115;28;20203;-75
2023/09/25 05:32:16;;;;;;;5.10;3.00;;;;;;;;;;5080360;28;20229;-75
2023/09/25 05:34:44;;;;;;;6.43;2.30;;;;;;;;;;5090668;28;20197;-75
2023/09/25 05:37:11;;;;;;;7.75;2.20;;;;;;;;;;5091241;28;20589;-76
2023/09/25 05:39:41;;;;;;;4.68;2.75;;;;;;;;;;5091298;28;20199;-75
2023/09/25 05:42:10;;;;;;;5.40;3.42;;;7.90;90.90;;;;;;5074242;28;20271;-76
2023/09/25 05:44:37;;;;;;;3.47;1.92;;;7.80;91.60;;;;;;5087732;28;21105;-76
2023/09/25 05:47:05;;;;;;;3.70;2.13;;;7.90;91.30;;;;;;5082673;28;20184;-76
2023/09/25 05:49:35;;;;;;;4.05;2.78;;;8.00;91.00;;;;;;5077213;28;20188;-75
2023/09/25 05:52:05;;;;;;;4.85;4.20;;;8.10;90.80;;;;;;5072832;28;20198;-75
2023/09/25 05:54:33;;;;;;;6.00;4.43;;;8.20;90.80;;;;;;5073066;28;20234;-76
2023/09/25 05:57:00;;;;;;;3.65;2.17;;;8.30;90.90;;;;;;5090088;28;20195;-76
2023/09/25 05:59:29;;;;;;;4.80;2.80;;;8.40;90.90;;;;;;5090001;28;20183;-75
2023/09/25 06:01:59;;;;;;;3.75;2.50;;;8.50;90.60;;;;;;5074668;28;20211;-75
2023/09/25 06:04:26;;;;;;;3.67;2.30;;;8.60;90.80;;;;;;5071972;28;20273;-74
2023/09/25 06:06:55;;;;;;;5.28;2.67;;;8.60;91.00;;;;;;5081988;28;20748;-76
2023/09/25 06:09:22;;;;;;;5.25;3.10;;;8.70;91.00;;;;;;5075884;28;20560;-75
2023/09/25 06:11:49;;;;;;;4.25;2.10;;;8.80;91.30;;;;;;5072727;28;20551;-76
2023/09/25 06:14:16;;;;;;;4.15;2.40;;;9.00;91.30;;;;;;5089323;28;20198;-76
2023/09/25 06:16:47;;;;;;;5.97;2.63;;;9.10;91.40;;;;;;5073376;28;20192;-75
2023/09/25 06:19:14;;;;;;;3.25;1.75;;;9.20;90.70;;;;;;5072458;28;20319;-76
2023/09/25 06:21:41;;;;;;;3.22;1.95;;;9.20;90.60;;;;;;5074321;28;20188;-75
2023/09/25 06:24:09;;;;;;;3.65;1.90;;;9.20;90.50;;;;;;5072822;28;20252;-76
2023/09/25 06:26:39;;;;;;;3.50;2.00;;;9.30;90.70;;;;;;5073452;28;21316;-75
2023/09/25 06:29:08;;;;;;;3.95;2.20;;;9.30;90.70;;;;;;5081116;28;20192;-75
2023/09/25 06:31:37;;;;;;;3.38;1.65;;;9.30;90.80;;;;;;5074065;28;20189;-75
2023/09/25 06:34:07;;;;;;;3.60;2.03;;;9.40;91.50;;;;;;5083562;28;20283;-75
2023/09/25 06:36:37;;;;;;;2.50;1.70;;;9.70;91.90;;;;;;5076734;28;20291;-75
2023/09/25 06:39:09;;;;;;;4.18;1.83;;;10.00;91.20;;;;;;5079000;28;20189;-76
2023/09/25 06:41:36;;;;;;;2.95;1.75;;;10.40;90.90;;;;;;5078531;28;20639;-76
2023/09/25 06:44:05;;;;;;;3.10;2.20;;;10.70;90.00;;;;;;5097321;28;20610;-76
2023/09/25 06:46:32;;;;;;;3.05;2.17;;;11.10;89.90;;;;;;5096678;28;20267;-76
2023/09/25 06:48:59;;;;;;;4.40;2.00;;;11.50;87.50;;;;;;5097057;28;20648;-76
2023/09/25 06:51:29;;;;;;;3.83;2.10;;;12.00;85.60;;;;;;5096801;28;20280;-76
2023/09/25 06:53:56;;;;;;;4.10;2.63;;;12.50;84.00;;;;;;5096997;28;20189;-75
2023/09/25 06:56:25;;;;;;;5.03;2.35;;;13.10;81.50;;;;;;5097302;28;20254;-76
2023/09/25 06:58:52;;;;;;;3.33;2.03;;;13.70;78.80;;;;;;5096889;28;20194;-76
2023/09/25 07:01:24;;;;;;;4.53;2.37;;;15.30;74.10;;;;;;5097194;28;20431;-76
2023/09/25 07:03:53;;;;;;;3.87;2.10;;;18.00;62.60;;;;;;5096777;28;20419;-76
2023/09/25 07:06:23;;;;;;;2.97;1.43;;;20.50;55.50;;;;;;5096724;28;20435;-74
2023/09/25 07:08:52;;;;;;;5.17;2.53;;;22.80;47.80;;;;;;5097181;28;20420;-74
2023/09/25 07:11:23;;;;;;;4.80;2.10;;;25.00;43.50;;;;;;5096928;28;20481;-74
2023/09/25 07:13:50;;;;;;;3.30;1.50;;;26.80;38.80;;;;;;5096657;28;20902;-74
2023/09/25 07:16:19;;;;;;;3.37;1.70;;;28.50;35.90;;;;;;5096877;28;20778;-74
2023/09/25 07:18:54;;;;;;;4.10;1.50;;;30.10;32.70;;;;;;5096442;28;20460;-74
2023/09/25 07:21:24;;;;;;;2.50;1.33;;;31.70;29.30;;;;;;5096530;28;20423;-74
2023/09/25 07:23:52;;;;;;;4.47;1.40;;;33.00;26.70;;;;;;5096535;28;20427;-74
2023/09/25 07:26:20;;;;;;;2.67;1.30;;;34.10;25.00;;;;;;5096741;28;20479;-74
2023/09/25 07:28:49;;;;;;;3.37;2.10;;;35.20;24.50;;;;;;5096370;28;20443;-74
2023/09/25 07:31:19;;;;;;;3.27;1.40;;;36.50;22.60;;;;;;5096310;28;20436;-74
2023/09/25 07:33:47;;;;;;;2.53;1.53;;;37.50;21.30;;;;;;5096741;28;20419;-74
2023/09/25 07:36:20;;;;;;;4.70;1.40;;;38.40;20.00;;;;;;5096145;28;20439;-75
2023/09/25 07:38:47;;;;;;;3.00;1.40;;;39.20;19.20;;;;;;5096591;28;20425;-74
2023/09/25 07:41:15;;;;;;;2.97;1.20;;;40.10;18.00;;;;;;5096514;28;20832;-74
2023/09/25 07:43:44;;;;;;;4.27;1.43;;;40.70;17.20;;;;;;5096009;28;20500;-74
2023/09/25 07:46:11;;;;;;;2.73;1.10;;;41.40;16.90;;;;;;5095390;28;20481;-74
2023/09/25 07:48:38;;;;;;;2.70;1.40;;;42.00;15.60;;;;;;5095769;28;20432;-75
2023/09/25 07:51:07;;;;;;;2.80;1.30;;;42.60;15.30;;;;;;5095797;28;20432;-74
2023/09/25 07:53:34;;;;;;;2.30;0.90;;;43.00;14.20;;;;;;5095778;28;20432;-74
2023/09/25 07:56:02;;;;;;;3.10;1.50;;;43.30;14.10;;;;;;5096046;28;20471;-74
2023/09/25 07:58:32;;;;;;;2.83;1.30;;;43.90;13.90;;;;;;5096108;28;20432;-74
2023/09/25 08:01:04;;;;;;;2.33;1.17;;;44.40;13.40;;;;;;5096017;28;20438;-75
2023/09/25 08:03:33;;;;;;;2.77;1.50;;;44.90;13.10;;;;;;5095992;28;20428;-74
2023/09/25 08:06:05;;;;;;;2.70;1.30;;;45.40;12.20;;;;;;5095958;28;20504;-75
2023/09/25 08:08:34;;;;;;;3.53;1.43;;;45.90;12.00;;;;;;5095965;28;20503;-75
2023/09/25 08:11:06;;;;;;;2.40;1.13;;;46.30;11.80;;;;;;5095891;28;20432;-75
2023/09/25 08:13:34;;;;;;;2.40;1.10;;;46.90;11.40;;;;;;5095902;28;20427;-74
2023/09/25 08:16:07;;;;;;;2.90;1.70;;;47.30;11.20;;;;;;5095713;28;20536;-75
2023/09/25 08:18:36;;;;;;;4.00;1.70;;;47.70;10.70;;;;;;5095551;28;20512;-75
2023/09/25 08:21:09;;;;;;;2.80;1.50;;;48.00;10.40;;;;;;5095293;28;20907;-75
2023/09/25 08:23:38;;;;;;;2.57;1.30;;;48.40;10.10;;;;;;5096015;28;20515;-75
2023/09/25 08:26:07;;;;;;;3.00;1.63;;;48.80;9.90;;;;;;5095597;28;20444;-75
2023/09/25 08:28:37;;;;;;;3.30;1.70;;;49.20;9.90;;;;;;5095280;28;20440;-75
2023/09/25 08:31:05;;;;;;;2.87;1.40;;;49.50;9.50;;;;;;5095344;28;20435;-74
2023/09/25 08:33:32;;;;;;;3.20;1.23;;;49.70;9.00;;;;;;5095073;28;20427;-75
2023/09/25 08:36:00;;;;;;;3.93;1.23;;;49.80;9.30;;;;;;5094877;28;20484;-75
2023/09/25 08:38:32;;;;;;;2.53;1.23;;;50.00;9.20;;;;;;5095344;28;20428;-75
2023/09/25 08:41:00;;;;;;;2.90;1.10;;;50.30;8.70;;;;;;5095390;28;20424;-75
2023/09/25 08:43:29;;;;;;;2.80;1.57;;;50.50;8.20;;;;;;5095330;28;20559;-75
2023/09/25 08:45:58;;;;;;;6.90;1.83;;;50.80;8.50;;;;;;5095133;28;20512;-75
2023/09/25 08:48:27;;;;;;;3.93;1.87;;;51.10;8.60;;;;;;5095167;28;20518;-75
2023/09/25 08:50:56;;;;;;;3.03;1.40;;;51.40;8.60;;;;;;5094636;28;20481;-75
2023/09/25 08:53:30;;;;;;;3.17;1.67;;;51.70;7.40;;;;;;5094932;28;20797;-75
2023/09/25 08:55:58;;;;;;;3.00;1.33;;;52.10;8.00;;;;;;5094991;28;20847;-75
2023/09/25 08:58:26;;;;;;;3.30;1.57;;;52.20;7.60;;;;;;5093926;28;20880;-75
2023/09/25 09:00:58;;;;;;;3.50;1.70;;;52.50;7.70;;;;;;5094541;28;20428;-75
2023/09/25 09:03:30;;;;;;;2.90;1.83;;;52.50;7.30;;;;;;5094878;28;20510;-75
2023/09/25 09:05:57;;;;;;;3.93;1.73;;;52.60;7.50;;;;;;5094506;28;20843;-75
2023/09/25 09:08:30;;;;;;;3.47;1.40;;;52.80;7.40;;;;;;5094397;28;20431;-75
2023/09/25 09:10:57;;;;;;;3.97;1.50;;;53.20;7.10;;;;;;5094457;28;20416;-75
2023/09/25 09:13:24;;;;;;;4.13;1.80;;;53.50;6.90;;;;;;5094645;28;20432;-74
2023/09/25 09:16:12;;;;;;;3.03;1.53;;;53.80;7.00;;;;;;5094570;28;20467;-75
2023/09/25 09:18:40;;;;;;;2.47;1.33;;;54.10;6.60;;;;;;5094266;28;20542;-75
2023/09/25 09:21:20;;;;;;;2.63;1.50;;;54.20;6.60;;;;;;5094204;28;20523;-75
2023/09/25 09:23:47;;;;;;;2.43;1.33;;;54.40;6.20;;;;;;5094158;28;20423;-75
2023/09/25 09:26:19;;;;;;;3.53;1.83;;;54.60;6.30;;;;;;5094087;28;20435;-75
2023/09/25 09:28:48;;;;;;;2.53;1.30;;;54.70;6.40;;;;;;5094072;28;20427;-75
2023/09/25 09:31:17;;;;;;;2.77;1.47;;;54.80;6.10;;;;;;5094240;28;20428;-75
2023/09/25 09:33:47;;;;;;;2.60;1.40;;;55.00;6.10;;;;;;5094258;28;20477;-75
2023/09/25 09:36:15;;;;;;;9.47;2.30;;;55.10;6.10;;;;;;5093854;28;20518;-75
2023/09/25 09:38:46;;;;;;;4.10;1.50;;;55.30;6.20;;;;;;5093904;28;20473;-75
2023/09/25 09:41:19;;;;;;;6.10;1.60;;;55.40;6.00;;;;;;5094249;28;20431;-75
2023/09/25 09:43:53;;;;;;;4.17;1.43;;;55.40;6.40;;;;;;5093803;28;20435;-75
2023/09/25 09:46:28;;;;;;;2.70;1.20;;;55.70;6.00;;;;;;5094134;28;20460;-75
2023/09/25 09:49:02;;;;;;;2.90;1.70;;;55.80;5.70;;;;;;5093973;28;20426;-75
2023/09/25 09:51:34;;;;;;;4.20;1.30;;;55.80;5.80;;;;;;5093899;28;20501;-75
2023/09/25 09:54:05;;;;;;;2.30;1.30;;;55.70;5.90;;;;;;5093610;28;20511;-76
2023/09/25 09:56:35;;;;;;;3.83;1.33;;;55.70;5.70;;;;;;5093654;28;20435;-76
2023/09/25 09:59:05;;;;;;;3.27;1.30;;;55.80;5.70;;;;;;5093578;28;20890;-75
2023/09/25 10:01:47;;;;;;;2.37;1.20;;;55.80;5.60;;;;;;5093683;28;20928;-75
2023/09/25 10:04:15;;;;;;;2.10;1.00;;;56.00;5.80;;;;;;5093476;28;20434;-75
2023/09/25 10:06:49;;;;;;;2.27;1.03;;;56.10;6.30;;;;;;5093384;28;20971;-75
2023/09/25 10:09:16;;;;;;;2.50;1.33;;;56.40;5.90;;;;;;5093399;28;20502;-75
2023/09/25 10:11:54;;;;;;;3.93;1.13;;;56.80;6.40;;;;;;5093905;28;20485;-75
2023/09/25 10:14:22;;;;;;;2.30;1.40;;;56.70;5.60;;;;;;5093680;28;20426;-75
2023/09/25 10:17:04;;;;;;;2.50;1.30;;;56.90;5.70;;;;;;5093676;28;20439;-75
2023/09/25 10:19:47;;;;;;;3.13;1.60;;;56.90;5.20;;;;;;5093200;28;20459;-75
2023/09/25 10:22:29;;;;;;;2.90;1.23;;;57.10;5.20;;;;;;5093742;28;20473;-75
2023/09/25 10:25:11;;;;;;;2.47;1.57;;;57.10;5.50;;;;;;5093582;28;20419;-75
2023/09/25 10:27:44;;;;;;;3.03;1.17;;;57.10;5.20;;;;;;5093307;28;20934;-75
2023/09/25 10:30:17;;;;;;;2.40;1.30;;;56.80;4.80;;;;;;5093155;28;20967;-75
2023/09/25 10:32:53;;;;;;;3.03;1.30;;;56.70;5.20;;;;;;5093637;28;20842;-75
2023/09/25 10:35:40;;;;;;;3.07;1.47;;;56.70;5.00;;;;;;5093434;28;20500;-75
2023/09/25 10:38:12;;;;;;;2.73;1.20;;;56.70;5.50;;;;;;5093458;28;20435;-76
2023/09/25 10:40:42;;;;;;;2.50;1.10;;;56.60;5.30;;;;;;5093368;28;20528;-76
2023/09/25 10:43:09;;;;;;;3.03;1.83;;;56.60;5.50;;;;;;5093138;28;20425;-75
2023/09/25 10:45:38;;;;;;;2.60;1.10;;;56.80;5.40;;;;;;5093220;28;20545;-75
2023/09/25 10:48:07;;;;;;;2.20;1.17;;;56.90;5.50;;;;;;5093040;28;20967;-75
2023/09/25 10:50:39;;;;;;;3.07;1.70;;;57.00;5.40;;;;;;5093221;28;20497;-75
2023/09/25 10:53:07;;;;;;;2.30;1.17;;;57.00;5.60;;;;;;5092768;28;20438;-75
2023/09/25 10:55:34;;;;;;;2.53;1.00;;;57.00;5.40;;;;;;5092956;28;20463;-75
2023/09/25 10:58:03;;;;;;;2.30;1.20;;;57.20;5.30;;;;;;5088418;28;20436;-75
2023/09/25 11:00:32;;;;;;;2.37;1.20;;;57.20;5.50;;;;;;5093147;28;20480;-75
2023/09/25 11:03:00;;;;;;;2.20;1.20;;;57.20;5.10;;;;;;5092341;28;20531;-75
2023/09/25 11:05:29;;;;;;;2.10;1.10;;;57.20;4.80;;;;;;5091944;28;20995;-76
2023/09/25 11:07:57;;;;;;;2.23;1.10;;;57.40;5.10;;;;;;5089424;28;20918;-76
2023/09/25 11:10:29;;;;;;;2.60;1.20;;;57.30;4.90;;;;;;5092459;28;20480;-75
2023/09/25 11:12:57;;;;;;;2.50;0.97;;;57.20;5.20;;;;;;5092400;28;20824;-75
2023/09/25 11:15:25;;;;;;;3.43;1.13;;;56.90;5.00;;;;;;5092599;28;20436;-76
2023/09/25 11:17:52;;;;;;;5.77;1.50;;;56.90;5.40;;;;;;5092038;28;20482;-75
2023/09/25 11:20:29;;;;;;;3.00;1.30;;;56.90;5.10;;;;;;5092106;28;20898;-75
2023/09/25 11:23:05;;;;;;;2.20;1.20;;;56.90;5.20;;;;;;5095334;28;20461;-75
2023/09/25 11:25:39;;;;;;;2.70;1.30;;;57.00;5.20;;;;;;5096733;28;20462;-76
2023/09/25 11:28:07;;;;;;;2.53;1.17;;;56.90;4.70;;;;;;5096798;28;20477;-75
2023/09/25 11:30:34;;;;;;;4.17;1.37;;;56.90;5.50;;;;;;5096362;28;20463;-75
2023/09/25 11:33:06;;;;;;;2.20;1.17;;;56.80;5.40;;;;;;5096624;28;20518;-75
2023/09/25 11:35:37;;;;;;;2.40;1.23;;;56.60;5.60;;;;;;5096452;28;20854;-75
2023/09/25 11:38:15;;;;;;;2.50;1.20;;;56.60;5.20;;;;;;5096575;28;20485;-76
2023/09/25 11:40:43;;;;;;;3.37;1.27;;;56.70;5.10;;;;;;5096473;28;20541;-76
2023/09/25 11:43:10;;;;;;;2.00;1.10;;;56.70;5.30;;;;;;5096430;28;20471;-76
2023/09/25 11:45:38;;;;;;;2.67;1.33;;;56.60;5.40;;;;;;5096432;28;20848;-75
2023/09/25 11:48:05;;;;;;;2.20;1.10;;;56.40;5.50;;;;;;5096490;28;20435;-75
2023/09/25 11:50:33;;;;;;;2.40;1.20;;;56.40;5.00;;;;;;5096225;28;20500;-75
2023/09/25 11:53:00;;;;;;;2.13;0.90;;;55.90;5.20;;;;;;5096238;28;20462;-75
2023/09/25 11:55:32;;;;;;;2.40;1.20;;;55.60;5.50;;;;;;5095928;28;20466;-76
2023/09/25 11:57:59;;;;;;;2.53;1.27;;;55.50;5.20;;;;;;5095940;28;20882;-76
2023/09/25 12:00:27;;;;;;;2.30;0.90;;;55.60;5.60;;;;;;5092221;28;20439;-76
2023/09/25 12:02:56;;;;;;;3.23;1.00;;;55.50;5.70;;;;;;5095984;28;20439;-76
2023/09/25 12:05:24;;;;;;;2.43;1.10;;;55.30;5.40;;;;;;5095873;28;20450;-75
2023/09/25 12:07:52;;;;;;;2.27;1.17;;;55.10;5.50;;;;;;5095927;28;20548;-75
2023/09/25 12:10:26;;;;;;;3.40;1.37;;;55.00;5.30;;;;;;5095895;28;20439;-75
2023/09/25 12:12:55;;;;;;;4.70;1.07;;;54.60;5.50;;;;;;5096087;28;20419;-76
2023/09/25 12:15:26;;;;;;;2.17;1.10;;;54.40;5.80;;;;;;5095477;28;20913;-76
2023/09/25 12:17:53;;;;;;;2.40;1.00;;;54.30;6.20;;;;;;5094922;28;20488;-75
2023/09/25 12:20:26;;;;;;;2.17;1.13;;;54.10;5.90;;;;;;5095725;28;20423;-76
2023/09/25 12:22:54;;;;;;;2.50;1.30;;;53.90;6.10;;;;;;5095687;28;20420;-76
2023/09/25 12:25:24;;;;;;;2.80;1.30;;;53.80;6.20;;;;;;5095639;28;20748;-75
2023/09/25 12:27:52;;;;;;;3.13;1.17;;;53.60;6.20;;;;;;5095195;28;20562;-76
2023/09/25 12:30:21;;;;;;;2.43;1.13;;;53.10;5.80;;;;;;5095104;28;20518;-75
2023/09/25 12:32:48;;;;;;;4.47;1.73;;;52.70;5.70;;;;;;5095521;28;20435;-75
2023/09/25 12:35:16;;;;;;;3.60;1.23;;;52.30;6.20;;;;;;5095069;28;20432;-75
2023/09/25 12:37:44;;;;;;;3.50;1.03;;;52.00;6.30;;;;;;5095104;28;20428;-75
2023/09/25 12:40:19;;;;;;;2.20;0.90;;;51.90;6.20;;;;;;5094954;28;20436;-75
2023/09/25 12:42:50;;;;;;;2.77;1.20;;;51.50;6.20;;;;;;5094985;28;20427;-76
2023/09/25 12:45:18;;;;;;;2.57;0.90;;;51.30;6.70;;;;;;5094870;28;20455;-75
2023/09/25 12:47:51;;;;;;;2.53;1.27;;;51.10;7.10;;;;;;5094728;28;21030;-75
2023/09/25 12:50:18;;;;;;;3.93;1.40;;;50.70;7.00;;;;;;5094824;28;20926;-75
2023/09/25 12:52:49;;;;;;;2.77;1.13;;;50.40;7.20;;;;;;5094664;28;20435;-75
2023/09/25 12:55:21;;;;;;;2.50;1.40;;;50.20;7.20;;;;;;5095043;28;20431;-75
2023/09/25 12:57:54;;;;;;;2.80;1.20;;;49.90;7.30;;;;;;5094752;28;20458;-75
2023/09/25 13:00:25;;;;;;;2.70;1.00;;;49.50;7.60;;;;;;5095148;28;20436;-75
2023/09/25 13:02:55;;;;;;;2.43;1.30;;;48.90;7.70;;;;;;5094563;28;20424;-75
2023/09/25 13:05:23;;;;;;;4.33;0.90;;;;;;;;;;5094564;28;20424;-75
2023/09/25 13:07:50;;;;;;;2.93;1.00;;;;;;;;;;5094702;28;20511;-75
2023/09/25 13:10:21;;;;;;;2.30;1.10;;;;;;;;;;5094681;28;20440;-75
2023/09/25 13:12:48;;;;;;;2.50;1.10;;;;;;;;;;5094673;28;20467;-75
2023/09/25 13:15:19;;;;;;;2.60;1.10;;;;;;;;;;5094350;28;20914;-75
2023/09/25 13:17:52;;;;;;;2.63;0.97;;;;;;;;;;5093497;28;20431;-74
2023/09/25 13:20:20;;;;;;;2.60;1.23;;;;;;;;;;5094190;28;20463;-75
2023/09/25 13:22:48;;;;;;;4.97;2.77;;;;;;;;;;5094133;28;20433;-75
2023/09/25 13:25:16;;;;;;;2.67;1.43;;;;;;;;;;5094507;28;20424;-74